createdAt,value
2022-11-01T00:00:12.070Z,14.27
2022-11-01T00:02:58.386Z,14.38
2022-11-01T00:05:46.069Z,14.25
2022-11-01T00:08:31.010Z,14.16
2022-11-01T00:11:18.020Z,14.25
2022-11-01T00:14:03.373Z,14.25
2022-11-01T00:16:49.137Z,14.17
2022-11-01T00:19:34.416Z,14.10
2022-11-01T00:22:19.429Z,14.15
2022-11-01T00:25:04.952Z,14.20
2022-11-01T00:27:49.998Z,14.05
2022-11-01T00:30:39.538Z,14.09
2022-11-01T00:33:25.611Z,14.05
2022-11-01T00:36:11.086Z,14.05
2022-11-01T00:38:56.254Z,14.15
2022-11-01T00:41:41.827Z,14.23
2022-11-01T00:44:27.185Z,14.21
2022-11-01T00:47:12.504Z,14.10
2022-11-01T00:49:57.485Z,14.07
2022-11-01T00:52:42.566Z,14.12
2022-11-01T00:55:27.591Z,14.09
2022-11-01T00:58:13.185Z,14.11
2022-11-01T01:00:58.772Z,14.01
2022-11-01T01:03:44.282Z,14.10
2022-11-01T01:06:29.548Z,14.02
2022-11-01T01:09:15.297Z,14.02
2022-11-01T01:12:00.514Z,13.98
2022-11-01T01:14:45.556Z,14.12
2022-11-01T01:17:33.726Z,14.10
2022-11-01T01:20:20.484Z,14.14
2022-11-01T01:23:05.718Z,14.05
2022-11-01T01:25:51.474Z,14.11
2022-11-01T01:28:41.847Z,14.15
2022-11-01T01:31:30.077Z,14.16
2022-11-01T01:34:15.011Z,14.16
2022-11-01T01:37:00.383Z,14.18
2022-11-01T01:39:46.169Z,14.20
2022-11-01T01:42:38.953Z,14.12
2022-11-01T01:45:24.163Z,14.06
2022-11-01T01:48:19.099Z,14.25
2022-11-01T01:51:08.915Z,14.30
2022-11-01T01:53:55.743Z,14.29
2022-11-01T01:56:41.030Z,14.32
2022-11-01T01:59:26.910Z,14.34
2022-11-01T02:02:13.417Z,14.48
2022-11-01T02:05:03.925Z,14.34
2022-11-01T02:07:49.346Z,14.34
2022-11-01T02:10:34.934Z,14.38
2022-11-01T02:13:20.112Z,14.46
2022-11-01T02:16:17.290Z,14.45
2022-11-01T02:19:35.276Z,14.50
2022-11-01T02:22:33.330Z,14.45
2022-11-01T02:25:21.887Z,14.60
2022-11-01T02:28:35.842Z,14.62
2022-11-01T02:31:49.044Z,14.58
2022-11-01T02:34:50.256Z,14.61
2022-11-01T02:37:43.944Z,14.56
2022-11-01T02:40:46.577Z,14.62
2022-11-01T02:43:59.975Z,14.69
2022-11-01T02:46:47.280Z,14.67
2022-11-01T02:49:38.347Z,14.66
2022-11-01T02:52:25.345Z,14.61
2022-11-01T02:55:20.100Z,14.75
2022-11-01T02:58:24.992Z,14.78
2022-11-01T03:01:15.791Z,14.72
2022-11-01T03:04:02.192Z,14.74
2022-11-01T03:06:56.248Z,14.70
2022-11-01T03:09:42.270Z,14.77
2022-11-01T03:12:32.737Z,14.77
2022-11-01T03:15:27.128Z,14.81
2022-11-01T03:18:21.327Z,14.87
2022-11-01T03:21:11.800Z,14.92
2022-11-01T03:24:11.609Z,14.91
2022-11-01T03:27:26.268Z,14.91
2022-11-01T03:30:14.709Z,14.93
2022-11-01T03:33:00.402Z,14.96
2022-11-01T03:35:50.164Z,14.98
2022-11-01T03:38:39.875Z,15.02
2022-11-01T03:41:26.916Z,15.06
2022-11-01T03:44:13.552Z,15.01
2022-11-01T03:46:59.030Z,14.96
2022-11-01T03:49:44.013Z,15.08
2022-11-01T03:52:29.219Z,15.01
2022-11-01T03:55:15.681Z,14.96
2022-11-01T03:58:01.171Z,14.96
2022-11-01T04:00:47.187Z,14.90
2022-11-01T04:03:32.664Z,14.93
2022-11-01T04:06:17.578Z,14.91
2022-11-01T04:09:02.511Z,14.92
2022-11-01T04:11:47.855Z,14.80
2022-11-01T04:14:32.756Z,14.71
2022-11-01T04:17:18.299Z,14.72
2022-11-01T04:20:04.060Z,14.74
2022-11-01T04:22:49.144Z,14.80
2022-11-01T04:25:34.367Z,14.80
2022-11-01T04:28:19.548Z,14.73
2022-11-01T04:31:05.533Z,14.77
2022-11-01T04:33:50.458Z,14.68
2022-11-01T04:36:37.303Z,14.72
2022-11-01T04:39:22.611Z,14.76
2022-11-01T04:42:07.652Z,14.99
2022-11-01T04:44:52.857Z,15.05
2022-11-01T04:47:37.693Z,15.11
2022-11-01T04:50:22.557Z,15.13
2022-11-01T04:53:07.932Z,15.17
2022-11-01T04:55:53.148Z,15.20
2022-11-01T04:58:43.064Z,15.24
2022-11-01T05:01:31.355Z,15.28
2022-11-01T05:04:16.553Z,15.28
2022-11-01T05:07:01.972Z,15.25
2022-11-01T05:09:46.975Z,15.34
2022-11-01T05:12:32.502Z,15.37
2022-11-01T05:15:18.008Z,15.50
2022-11-01T05:18:04.124Z,15.61
2022-11-01T05:20:49.143Z,15.67
2022-11-01T05:23:33.996Z,15.80
2022-11-01T05:26:18.826Z,15.84
2022-11-01T05:29:08.714Z,15.86
2022-11-01T05:31:54.504Z,15.94
2022-11-01T05:34:39.714Z,15.97
2022-11-01T05:37:28.124Z,16.03
2022-11-01T05:40:13.575Z,15.98
2022-11-01T05:42:58.994Z,16.05
2022-11-01T05:45:44.237Z,16.10
2022-11-01T05:48:29.646Z,16.05
2022-11-01T05:51:14.695Z,16.13
2022-11-01T05:53:59.676Z,16.11
2022-11-01T05:56:44.746Z,16.16
2022-11-01T05:59:29.615Z,16.11
2022-11-01T06:02:15.148Z,16.19
2022-11-01T06:05:03.068Z,16.22
2022-11-01T06:07:48.505Z,16.27
2022-11-01T06:10:34.432Z,16.20
2022-11-01T06:13:19.925Z,16.23
2022-11-01T06:16:06.179Z,16.28
2022-11-01T06:18:51.219Z,16.31
2022-11-01T06:21:36.620Z,16.26
2022-11-01T06:24:21.628Z,16.28
2022-11-01T06:27:11.458Z,16.25
2022-11-01T06:29:57.607Z,16.28
2022-11-01T06:32:42.918Z,16.25
2022-11-01T06:35:28.369Z,16.19
2022-11-01T06:38:13.292Z,16.12
2022-11-01T06:40:58.402Z,16.08
2022-11-01T06:43:43.754Z,16.12
2022-11-01T06:46:29.035Z,16.12
2022-11-01T06:49:18.869Z,16.04
2022-11-01T06:52:05.242Z,15.98
2022-11-01T06:54:50.593Z,16.02
2022-11-01T06:57:36.087Z,16.01
2022-11-01T07:00:21.312Z,15.95
2022-11-01T07:03:10.120Z,15.98
2022-11-01T07:05:55.679Z,15.94
2022-11-01T07:08:40.504Z,15.91
2022-11-01T07:11:31.216Z,15.90
2022-11-01T07:14:16.940Z,15.90
2022-11-01T07:17:01.845Z,15.97
2022-11-01T07:19:47.463Z,16.01
2022-11-01T07:22:32.768Z,15.94
2022-11-01T07:25:17.689Z,15.94
2022-11-01T07:28:03.366Z,15.93
2022-11-01T07:30:53.345Z,16.02
2022-11-01T07:33:38.730Z,15.97
2022-11-01T07:36:23.622Z,16.04
2022-11-01T07:39:08.449Z,16.06
2022-11-01T07:41:53.567Z,16.04
2022-11-01T07:44:38.607Z,16.04
2022-11-01T07:47:23.456Z,16.18
2022-11-01T07:50:08.724Z,16.16
2022-11-01T07:53:05.197Z,16.14
2022-11-01T07:55:50.966Z,16.18
2022-11-01T07:58:35.880Z,16.28
2022-11-01T08:01:20.871Z,16.18
2022-11-01T08:04:06.210Z,16.20
2022-11-01T08:06:52.330Z,16.19
2022-11-01T08:09:37.569Z,16.28
2022-11-01T08:12:22.614Z,16.29
2022-11-01T08:15:08.097Z,16.39
2022-11-01T08:17:55.807Z,16.26
2022-11-01T08:20:41.146Z,16.25
2022-11-01T08:23:26.381Z,16.14
2022-11-01T08:26:11.819Z,15.93
2022-11-01T08:28:56.648Z,15.80
2022-11-01T08:31:41.905Z,15.63
2022-11-01T08:34:27.370Z,15.52
2022-11-01T08:37:12.657Z,15.45
2022-11-01T08:39:57.594Z,15.24
2022-11-01T08:42:42.379Z,15.25
2022-11-01T08:45:27.875Z,15.15
2022-11-01T08:48:13.665Z,15.10
2022-11-01T08:50:58.632Z,14.99
2022-11-01T08:53:44.099Z,15.03
2022-11-01T08:56:29.137Z,15.00
2022-11-01T08:59:14.099Z,14.96
2022-11-01T09:01:59.569Z,15.08
2022-11-01T09:04:44.809Z,15.19
2022-11-01T09:07:30.177Z,15.35
2022-11-01T09:10:16.504Z,15.38
2022-11-01T09:13:02.463Z,15.37
2022-11-01T09:15:48.325Z,15.40
2022-11-01T09:18:33.871Z,15.49
2022-11-01T09:21:18.984Z,15.60
2022-11-01T09:24:04.496Z,15.62
2022-11-01T09:26:49.736Z,15.66
2022-11-01T09:29:35.248Z,15.78
2022-11-01T09:32:20.519Z,15.61
2022-11-01T09:35:06.291Z,15.69
2022-11-01T09:37:57.605Z,15.76
2022-11-01T09:40:44.375Z,15.86
2022-11-01T09:43:32.731Z,15.80
2022-11-01T09:49:20.897Z,15.71
2022-11-01T09:52:06.484Z,15.84
2022-11-01T09:54:51.744Z,15.98
2022-11-01T09:57:44.126Z,15.87
2022-11-01T10:00:35.204Z,15.79
2022-11-01T10:03:35.933Z,15.89
2022-11-01T10:06:27.714Z,15.81
2022-11-01T10:09:37.960Z,15.82
2022-11-01T10:12:40.867Z,15.72
2022-11-01T10:16:00.157Z,15.83
2022-11-01T10:19:08.273Z,15.91
2022-11-01T10:21:58.624Z,15.75
2022-11-01T10:24:49.828Z,15.93
2022-11-01T10:27:55.324Z,15.91
2022-11-01T10:30:46.796Z,15.90
2022-11-01T10:33:35.162Z,16.13
2022-11-01T10:36:26.819Z,15.99
2022-11-01T10:42:41.147Z,16.06
2022-11-01T10:45:26.860Z,16.07
2022-11-01T10:48:19.685Z,15.80
2022-11-01T10:51:07.942Z,15.89
2022-11-01T10:53:58.181Z,15.98
2022-11-01T10:56:46.679Z,16.03
2022-11-01T10:59:40.181Z,16.06
2022-11-01T11:02:45.950Z,16.01
2022-11-01T11:05:32.742Z,16.18
2022-11-01T11:08:20.808Z,16.14
2022-11-01T11:11:12.213Z,16.34
2022-11-01T11:14:00.099Z,16.24
2022-11-01T11:16:49.999Z,16.20
2022-11-01T11:19:36.449Z,16.13
2022-11-01T11:22:23.041Z,16.27
2022-11-01T11:25:22.173Z,16.11
2022-11-01T11:28:22.389Z,16.05
2022-11-01T11:31:36.957Z,15.95
2022-11-01T11:34:33.320Z,16.25
2022-11-01T11:37:22.085Z,15.99
2022-11-01T11:40:17.309Z,16.18
2022-11-01T11:43:21.469Z,16.23
2022-11-01T11:46:16.671Z,16.16
2022-11-01T11:49:02.325Z,16.09
2022-11-01T11:51:47.350Z,16.23
2022-11-01T11:54:33.589Z,16.35
2022-11-01T11:57:24.581Z,16.27
2022-11-01T12:00:22.231Z,16.42
2022-11-01T12:03:10.583Z,16.53
2022-11-01T12:06:01.759Z,16.65
2022-11-01T12:08:50.215Z,16.46
2022-11-01T12:11:44.758Z,16.46
2022-11-01T12:14:33.234Z,16.34
2022-11-01T12:17:45.148Z,16.46
2022-11-01T12:20:36.630Z,16.61
2022-11-01T12:23:40.061Z,16.78
2022-11-01T12:26:27.239Z,16.80
2022-11-01T12:29:52.095Z,16.98
2022-11-01T12:32:58.064Z,17.03
2022-11-01T12:35:45.038Z,17.16
2022-11-01T12:39:03.537Z,16.91
2022-11-01T12:41:53.877Z,17.06
2022-11-01T12:44:47.955Z,17.00
2022-11-01T12:47:46.525Z,17.01
2022-11-01T12:50:49.940Z,16.94
2022-11-01T12:53:43.199Z,16.84
2022-11-01T12:56:28.418Z,16.97
2022-11-01T12:59:20.754Z,16.99
2022-11-01T13:02:30.853Z,16.90
2022-11-01T13:05:21.416Z,17.00
2022-11-01T13:08:16.361Z,17.14
2022-11-01T13:11:25.046Z,17.32
2022-11-01T13:14:47.559Z,17.59
2022-11-01T13:18:02.052Z,17.42
2022-11-01T13:20:47.078Z,17.45
2022-11-01T13:23:49.044Z,17.31
2022-11-01T13:26:40.757Z,17.09
2022-11-01T13:30:01.484Z,17.33
2022-11-01T13:32:58.381Z,17.10
2022-11-01T13:36:16.263Z,16.63
2022-11-01T13:39:13.487Z,16.72
2022-11-01T13:42:11.650Z,16.72
2022-11-01T13:45:28.898Z,16.55
2022-11-01T13:48:44.454Z,16.68
2022-11-01T13:51:53.979Z,16.66
2022-11-01T13:54:54.318Z,16.65
2022-11-01T13:57:44.866Z,16.95
2022-11-01T14:00:43.208Z,16.83
2022-11-01T14:03:33.147Z,16.70
2022-11-01T14:06:26.955Z,16.63
2022-11-01T14:09:24.513Z,16.63
2022-11-01T14:12:29.050Z,16.84
2022-11-01T14:15:21.718Z,16.85
2022-11-01T14:18:08.152Z,16.58
2022-11-01T14:20:54.484Z,16.58
2022-11-01T14:23:42.619Z,16.55
2022-11-01T14:26:50.444Z,16.60
2022-11-01T14:29:35.398Z,16.58
2022-11-01T14:32:23.901Z,17.02
2022-11-01T14:35:12.140Z,16.85
2022-11-01T14:38:02.247Z,16.71
2022-11-01T14:40:51.688Z,16.52
2022-11-01T14:43:51.394Z,16.51
2022-11-01T14:46:46.623Z,16.55
2022-11-01T14:49:44.092Z,16.62
2022-11-01T14:52:41.392Z,16.52
2022-11-01T14:55:34.829Z,16.44
2022-11-01T14:58:22.856Z,16.30
2022-11-01T15:01:13.517Z,16.26
2022-11-01T15:04:00.320Z,16.16
2022-11-01T15:06:45.403Z,16.19
2022-11-01T15:09:31.857Z,16.19
2022-11-01T15:12:17.131Z,16.28
2022-11-01T15:15:03.297Z,16.27
2022-11-01T15:18:15.946Z,16.02
2022-11-01T15:21:01.206Z,15.80
2022-11-01T15:23:48.504Z,15.67
2022-11-01T15:26:33.955Z,15.59
2022-11-01T15:29:22.804Z,15.57
2022-11-01T15:32:22.384Z,15.50
2022-11-01T15:35:21.945Z,15.43
2022-11-01T15:38:20.791Z,15.30
2022-11-01T15:41:20.601Z,15.16
2022-11-01T15:44:06.415Z,15.21
2022-11-01T15:46:55.288Z,15.13
2022-11-01T15:50:02.860Z,15.07
2022-11-01T15:52:48.311Z,15.10
2022-11-01T15:55:37.711Z,14.99
2022-11-01T15:58:30.120Z,14.92
2022-11-01T16:01:20.185Z,14.80
2022-11-01T16:04:09.939Z,14.79
2022-11-01T16:07:02.604Z,14.72
2022-11-01T16:09:57.710Z,14.72
2022-11-01T16:12:45.363Z,14.68
2022-11-01T16:15:32.556Z,14.69
2022-11-01T16:18:24.115Z,14.60
2022-11-01T16:21:18.420Z,14.38
2022-11-01T16:24:11.649Z,14.40
2022-11-01T16:26:59.460Z,14.34
2022-11-01T16:29:47.599Z,14.30
2022-11-01T16:32:33.076Z,14.32
2022-11-01T16:36:07.986Z,14.30
2022-11-01T16:38:53.767Z,14.20
2022-11-01T16:41:41.025Z,14.27
2022-11-01T16:44:26.672Z,14.29
2022-11-01T16:47:16.258Z,14.28
2022-11-01T16:50:01.224Z,14.21
2022-11-01T16:52:46.942Z,14.06
2022-11-01T16:55:33.579Z,14.11
2022-11-01T16:58:26.384Z,14.10
2022-11-01T17:01:20.942Z,14.07
2022-11-01T17:04:06.364Z,14.10
2022-11-01T17:06:51.512Z,14.00
2022-11-01T17:09:36.385Z,14.03
2022-11-01T17:12:21.314Z,13.99
2022-11-01T17:15:06.913Z,13.92
2022-11-01T17:17:52.292Z,13.86
2022-11-01T17:20:39.194Z,13.79
2022-11-01T17:23:25.705Z,13.66
2022-11-01T17:26:11.826Z,13.53
2022-11-01T17:28:57.001Z,13.35
2022-11-01T17:31:42.165Z,13.18
2022-11-01T17:34:27.554Z,13.05
2022-11-01T17:37:15.961Z,13.01
2022-11-01T17:40:01.566Z,12.97
2022-11-01T17:42:47.021Z,12.87
2022-11-01T17:45:32.200Z,12.78
2022-11-01T17:48:18.757Z,12.73
2022-11-01T17:51:03.841Z,12.76
2022-11-01T17:53:56.476Z,12.74
2022-11-01T17:56:41.608Z,12.76
2022-11-01T17:59:26.983Z,12.85
2022-11-01T18:02:11.865Z,13.04
2022-11-01T18:04:57.165Z,13.27
2022-11-01T18:07:44.535Z,13.24
2022-11-01T18:10:38.438Z,13.16
2022-11-01T18:13:29.835Z,13.17
2022-11-01T18:16:26.672Z,13.17
2022-11-01T18:19:19.237Z,13.19
2022-11-01T18:22:16.930Z,13.14
2022-11-01T18:25:22.257Z,13.19
2022-11-01T18:28:20.526Z,13.12
2022-11-01T18:31:25.625Z,13.04
2022-11-01T18:34:22.740Z,13.06
2022-11-01T18:37:21.442Z,12.97
2022-11-01T18:40:18.605Z,12.95
2022-11-01T18:43:07.957Z,12.96
2022-11-01T18:46:22.756Z,12.85
2022-11-01T18:49:01.050Z,12.87
2022-11-01T18:51:46.274Z,12.87
2022-11-01T18:54:31.409Z,12.78
2022-11-01T18:57:17.824Z,12.67
2022-11-01T19:00:12.450Z,12.61
2022-11-01T19:02:59.650Z,12.57
2022-11-01T19:05:44.835Z,12.54
2022-11-01T19:08:29.805Z,12.57
2022-11-01T19:11:16.155Z,12.46
2022-11-01T19:14:02.902Z,12.47
2022-11-01T19:16:47.941Z,12.43
2022-11-01T19:19:36.443Z,12.40
2022-11-01T19:22:31.838Z,12.44
2022-11-01T19:25:27.949Z,12.34
2022-11-01T19:28:34.931Z,12.33
2022-11-01T19:31:30.820Z,12.32
2022-11-01T19:34:25.448Z,12.36
2022-11-01T19:37:31.823Z,12.38
2022-11-01T19:40:28.203Z,12.29
2022-11-01T19:43:16.042Z,12.28
2022-11-01T19:46:01.372Z,12.28
2022-11-01T19:48:47.649Z,12.21
2022-11-01T19:51:32.693Z,12.19
2022-11-01T19:54:18.168Z,12.19
2022-11-01T19:57:17.441Z,12.14
2022-11-01T20:00:18.875Z,12.13
2022-11-01T20:03:14.195Z,12.14
2022-11-01T20:05:59.731Z,12.12
2022-11-01T20:08:45.074Z,12.09
2022-11-01T20:11:31.728Z,12.08
2022-11-01T20:14:17.008Z,12.09
2022-11-01T20:17:02.776Z,12.13
2022-11-01T20:19:47.675Z,12.05
2022-11-01T20:22:34.128Z,12.07
2022-11-01T20:25:19.523Z,12.07
2022-11-01T20:28:06.073Z,12.10
2022-11-01T20:30:51.849Z,12.10
2022-11-01T20:33:36.947Z,12.04
2022-11-01T20:36:22.068Z,12.11
2022-11-01T20:39:09.219Z,12.07
2022-11-01T20:41:56.729Z,12.02
2022-11-01T20:44:42.132Z,12.02
2022-11-01T20:47:27.428Z,11.99
2022-11-01T20:50:15.011Z,11.94
2022-11-01T20:53:00.057Z,11.97
2022-11-01T20:55:45.624Z,11.87
2022-11-01T20:58:30.981Z,11.86
2022-11-01T21:01:18.067Z,11.83
2022-11-01T21:04:10.675Z,11.82
2022-11-01T21:06:56.138Z,11.76
2022-11-01T21:09:42.945Z,11.71
2022-11-01T21:12:48.211Z,11.70
2022-11-01T21:15:39.569Z,11.59
2022-11-01T21:18:32.622Z,11.61
2022-11-01T21:21:17.745Z,11.61
2022-11-01T21:24:25.700Z,11.58
2022-11-01T21:27:10.922Z,11.49
2022-11-01T21:30:15.111Z,11.46
2022-11-01T21:33:00.254Z,11.50
2022-11-01T21:35:45.559Z,11.44
2022-11-01T21:38:35.505Z,11.40
2022-11-01T21:41:23.286Z,11.42
2022-11-01T21:44:23.592Z,11.43
2022-11-01T21:47:08.511Z,11.45
2022-11-01T21:49:54.053Z,11.46
2022-11-01T21:52:39.397Z,11.42
2022-11-01T21:55:24.251Z,11.43
2022-11-01T21:58:09.807Z,11.42
2022-11-01T22:00:55.365Z,11.37
2022-11-01T22:03:40.524Z,11.37
2022-11-01T22:06:26.043Z,11.40
2022-11-01T22:09:11.552Z,11.35
2022-11-01T22:11:57.181Z,11.31
2022-11-01T22:14:42.270Z,11.27
2022-11-01T22:17:27.632Z,11.22
2022-11-01T22:20:12.581Z,11.28
2022-11-01T22:22:57.545Z,11.20
2022-11-01T22:25:42.614Z,11.22
2022-11-01T22:28:27.416Z,11.22
2022-11-01T22:31:13.209Z,11.23
2022-11-01T22:33:58.413Z,11.19
2022-11-01T22:36:43.785Z,11.23
2022-11-01T22:39:29.785Z,11.21
2022-11-01T22:42:15.981Z,11.22
2022-11-01T22:45:00.859Z,11.17
2022-11-01T22:47:46.565Z,11.17
2022-11-01T22:50:31.489Z,11.17
2022-11-01T22:53:22.396Z,11.15
2022-11-01T22:56:11.328Z,11.18
2022-11-01T22:58:56.717Z,11.19
2022-11-01T23:01:42.876Z,11.15
2022-11-01T23:04:28.083Z,11.16
2022-11-01T23:07:44.745Z,11.15
2022-11-01T23:10:33.736Z,11.16
2022-11-01T23:13:30.114Z,11.21
2022-11-01T23:16:45.015Z,11.22
2022-11-01T23:19:30.330Z,11.22
2022-11-01T23:22:19.707Z,11.25
2022-11-01T23:25:05.898Z,11.24
2022-11-01T23:27:50.990Z,11.30
2022-11-01T23:30:36.414Z,11.33
2022-11-01T23:33:22.253Z,11.40
2022-11-01T23:36:40.321Z,11.37
2022-11-01T23:39:32.900Z,11.37
2022-11-01T23:42:21.087Z,11.40
2022-11-01T23:45:21.860Z,11.47
2022-11-01T23:48:09.070Z,11.49
2022-11-01T23:50:54.065Z,11.43
2022-11-01T23:53:40.527Z,11.49
2022-11-01T23:56:25.861Z,11.49
2022-11-01T23:59:11.040Z,11.48
